Time;durP1;ratioP1;P1;durP2;ratioP2;P2;SDS_P1;SDS_P2;PMS_P1;PMS_P2;Temp;Humidity;BMP_temperature;BMP_pressure;BME280_temperature;BME280_humidity;BME280_pressure;Samples;Min_cycle;Max_cycle;Signal;HPM_P1;HPM_P2
2022/01/19 00:00:58;;;;;;;37.60;24.43;;;;;;;6.65;74.19;102856.72;5098156;28;20176;-71
2022/01/19 00:03:23;;;;;;;46.97;27.67;;;;;;;6.42;75.05;102851.84;5097999;28;20526;-71
2022/01/19 00:05:51;;;;;;;44.10;28.80;;;;;;;6.42;75.29;102836.31;5098996;28;20229;-73
2022/01/19 00:08:20;;;;;;;42.43;27.70;;;;;;;6.98;72.69;102825.81;5098224;28;20549;-71
2022/01/19 00:10:46;;;;;;;45.33;29.13;;;;;;;6.62;74.02;102833.22;5097995;28;20799;-71
2022/01/19 00:13:12;;;;;;;45.97;27.70;;;;;;;6.14;75.16;102834.63;5098340;28;20400;-74
2022/01/19 00:15:37;;;;;;;45.70;27.33;;;;;;;6.07;76.47;102844.59;5080385;28;20533;-69
2022/01/19 00:18:03;;;;;;;40.50;26.40;;;;;;;6.05;76.19;102846.19;5097611;28;20223;-71
2022/01/19 00:20:30;;;;;;;41.90;27.23;;;;;;;5.93;76.06;102852.25;5098508;28;20165;-75
2022/01/19 00:22:56;;;;;;;45.07;26.07;;;;;;;6.00;75.92;102857.94;5097707;28;20250;-71
2022/01/19 00:25:21;;;;;;;40.30;28.17;;;;;;;5.87;76.27;102851.09;5097689;28;20418;-72
2022/01/19 00:27:47;;;;;;;43.50;26.00;;;;;;;5.83;76.54;102838.75;5098230;28;20164;-73
2022/01/19 00:30:13;;;;;;;41.70;27.20;;;;;;;6.14;75.95;102834.63;5100572;28;20191;-74
2022/01/19 00:32:38;;;;;;;43.83;27.10;;;;;;;6.26;75.01;102829.31;5101734;28;20218;-72
2022/01/19 00:35:05;;;;;;;45.17;26.70;;;;;;;6.34;75.38;102839.31;5102172;28;20380;-71
2022/01/19 00:37:30;;;;;;;43.73;26.40;;;;;;;6.47;75.00;102824.50;5101592;28;20268;-71
2022/01/19 00:39:56;;;;;;;41.23;26.07;;;;;;;6.69;74.06;102817.22;5101619;28;20422;-74
2022/01/19 00:42:21;;;;;;;45.67;27.67;;;;;;;6.54;74.44;102806.84;5102005;28;20267;-73
2022/01/19 00:44:47;;;;;;;39.93;25.73;;;;;;;6.38;74.43;102809.31;5101235;28;20187;-73
2022/01/19 00:47:13;;;;;;;40.80;24.97;;;;;;;6.27;74.67;102808.66;5101357;28;20546;-72
2022/01/19 00:49:38;;;;;;;43.03;25.33;;;;;;;6.16;75.33;102799.38;5067324;28;20172;-73
2022/01/19 00:52:04;;;;;;;44.37;26.50;;;;;;;6.48;74.17;102805.56;5101252;28;20436;-72
2022/01/19 00:54:29;;;;;;;39.10;25.20;;;;;;;6.46;75.07;102802.91;5101174;28;20442;-74
2022/01/19 00:56:54;;;;;;;38.87;25.80;;;;;;;6.43;73.99;102802.72;5101654;28;20184;-74
2022/01/19 00:59:20;;;;;;;44.30;24.73;;;;;;;6.10;75.58;102806.75;5088338;28;20604;-75
2022/01/19 01:01:45;;;;;;;42.13;25.90;;;;;;;6.12;75.28;102816.41;5080779;28;20165;-73
2022/01/19 01:04:10;;;;;;;43.83;25.37;;;;;;;6.39;74.76;102803.34;5081184;28;20173;-70
2022/01/19 01:06:35;;;;;;;49.70;27.23;;;;;;;6.11;75.79;102818.91;5080712;28;20260;-72
2022/01/19 01:09:01;;;;;;;42.80;25.93;;;;;;;5.81;75.89;102811.00;5080816;28;20205;-72
2022/01/19 01:11:35;;;;;;;39.83;26.20;;;;;;;6.49;74.67;102795.28;5081394;28;20161;-73
2022/01/19 01:16:40;;;;;;;40.03;25.60;;;;;;;6.07;74.93;102791.91;5080640;28;20820;-74
2022/01/19 01:19:10;;;;;;;44.40;27.03;;;;;;;6.30;74.66;102777.75;5080792;28;20430;-72
2022/01/19 01:21:35;;;;;;;45.90;27.30;;;;;;;6.26;74.32;102760.25;5063133;28;20414;-74
2022/01/19 01:24:01;;;;;;;39.87;26.10;;;;;;;6.49;74.12;102756.44;5080374;28;20394;-72
2022/01/19 01:26:27;;;;;;;39.87;25.43;;;;;;;6.53;73.23;102757.50;5080611;28;20164;-71
2022/01/19 01:28:52;;;;;;;44.23;25.90;;;;;;;6.69;73.11;102743.75;5080837;28;20263;-71
2022/01/19 01:31:18;;;;;;;43.07;26.83;;;;;;;6.14;74.07;102757.81;5080428;28;20211;-71
2022/01/19 01:33:43;;;;;;;42.53;25.37;;;;;;;6.20;74.69;102757.31;5080222;28;20534;-70
2022/01/19 01:36:09;;;;;;;37.07;24.93;;;;;;;5.90;75.65;102745.13;5080754;28;20183;-70
2022/01/19 01:38:34;;;;;;;40.40;26.10;;;;;;;6.17;74.63;102729.53;5080222;28;20177;-71
2022/01/19 01:40:59;;;;;;;42.47;27.13;;;;;;;6.19;75.01;102722.72;5079885;28;20192;-71
2022/01/19 01:43:25;;;;;;;38.07;24.77;;;;;;;6.02;74.88;102724.31;5080417;28;20169;-71
2022/01/19 01:45:54;;;;;;;38.50;25.67;;;;;;;6.24;74.67;102707.47;5080059;28;20176;-71
2022/01/19 01:48:23;;;;;;;34.93;22.73;;;;;;;6.06;75.15;102707.25;5063412;28;20210;-71
2022/01/19 01:53:34;;;;;;;30.37;21.23;;;;;;;6.28;74.28;102668.00;5083925;28;20484;-71
2022/01/19 01:56:03;;;;;;;33.93;21.83;;;;;;;6.39;73.37;102648.78;5100125;28;20403;-70
2022/01/19 01:58:31;;;;;;;36.70;22.50;;;;;;;6.03;74.37;102648.41;5105737;28;20429;-70
2022/01/19 02:00:57;;;;;;;37.57;24.07;;;;;;;6.00;75.69;102656.00;5120566;28;20399;-71
2022/01/19 02:03:23;;;;;;;38.03;25.00;;;;;;;5.90;75.66;102643.31;5120600;28;20429;-70
2022/01/19 02:06:20;;;;;;;40.67;25.67;;;;;;;6.13;74.90;102641.19;5120970;28;20171;-70
2022/01/19 02:09:13;;;;;;;37.80;24.00;;;;;;;5.91;74.99;102655.41;5120466;28;20672;-70
2022/01/19 02:23:21;;;;;;;40.10;24.90;;;;;;;6.48;72.96;102593.09;5105279;28;20448;-69
2022/01/19 02:25:51;;;;;;;38.60;24.57;;;;;;;6.03;73.92;102582.81;5120262;28;20655;-69
2022/01/19 02:31:33;;;;;;;43.00;24.17;;;;;;;6.49;72.98;102576.75;5120197;28;20413;-70
2022/01/19 02:41:59;;;;;;;17.57;11.93;;;;;;;12.33;70.46;102521.41;5101531;28;20441;-69
2022/01/19 02:49:55;;;;;;;25.33;17.97;;;;;;;6.74;71.04;102522.00;5099282;28;20411;-70
2022/01/19 02:52:22;;;;;;;26.23;17.70;;;;;;;6.50;71.92;102516.38;5077602;28;20459;-68
2022/01/19 02:54:48;;;;;;;27.17;17.20;;;;;;;6.48;72.31;102499.84;5078844;28;20674;-69
2022/01/19 02:57:14;;;;;;;29.00;19.20;;;;;;;6.05;73.89;102494.06;5079683;28;20448;-70
2022/01/19 03:10:26;;;;;;;31.07;17.60;;;;;;;6.22;73.48;102455.25;5078664;28;20423;-70
2022/01/19 03:12:51;;;;;;;26.30;16.63;;;;;;;6.04;75.89;102463.78;5078333;28;20509;-70
2022/01/19 03:15:17;;;;;;;28.10;16.37;;;;;;;5.98;74.16;102454.78;5078963;28;20173;-70
2022/01/19 03:17:42;;;;;;;34.20;18.90;;;;;;;5.72;75.99;102457.66;5078645;28;20207;-69
2022/01/19 03:20:09;;;;;;;28.57;16.23;;;;;;;5.85;75.51;102448.00;5078514;28;20169;-70
2022/01/19 03:22:55;;;;;;;26.70;17.73;;;;;;;6.18;74.45;102428.31;5078313;28;20176;-69
2022/01/19 03:25:20;;;;;;;24.83;16.00;;;;;;;5.92;75.29;102423.34;5078271;28;20535;-69
2022/01/19 03:27:47;;;;;;;24.23;16.57;;;;;;;6.05;74.82;102418.09;5078326;28;20423;-69
2022/01/19 03:30:13;;;;;;;27.93;17.40;;;;;;;6.36;73.23;102410.28;5078363;28;20173;-69
2022/01/19 03:32:39;;;;;;;28.57;17.43;;;;;;;6.29;73.40;102417.63;5078211;28;20411;-69
2022/01/19 03:35:05;;;;;;;24.47;17.23;;;;;;;6.48;72.90;102424.69;5078623;28;20509;-70
2022/01/19 03:37:30;;;;;;;32.00;17.20;;;;;;;6.12;74.44;102421.91;5077966;28;20208;-70
2022/01/19 03:39:55;;;;;;;28.27;18.00;;;;;;;6.26;73.37;102402.81;5078324;28;20427;-69
2022/01/19 03:42:21;;;;;;;25.13;15.57;;;;;;;6.08;74.72;102407.91;5078504;28;20278;-69
2022/01/19 03:44:46;;;;;;;28.50;16.47;;;;;;;6.24;73.90;102412.22;5077898;28;20561;-70
2022/01/19 03:47:12;;;;;;;28.60;17.00;;;;;;;5.72;74.82;102411.09;5077802;28;20180;-69
2022/01/19 03:49:37;;;;;;;29.93;16.80;;;;;;;6.31;73.65;102403.97;5078945;28;20181;-70
2022/01/19 03:52:04;;;;;;;31.20;16.90;;;;;;;6.26;74.11;102397.63;5078037;28;20229;-69
2022/01/19 03:54:32;;;;;;;25.40;15.80;;;;;;;6.31;73.85;102392.72;5077935;28;20208;-69
2022/01/19 03:56:58;;;;;;;25.13;15.37;;;;;;;6.43;73.05;102385.59;5078346;28;20429;-69
2022/01/19 03:59:23;;;;;;;23.77;15.73;;;;;;;6.35;73.44;102379.13;5078022;28;20681;-70
2022/01/19 04:01:51;;;;;;;27.60;18.00;;;;;;;6.19;73.48;102386.06;5060423;28;20438;-69
2022/01/19 04:04:34;;;;;;;25.63;16.40;;;;;;;6.14;74.16;102373.66;5079359;28;20531;-69
2022/01/19 04:07:07;;;;;;;33.20;17.63;;;;;;;6.37;73.26;102359.34;5081973;28;20734;-70
2022/01/19 04:09:38;;;;;;;25.10;15.90;;;;;;;6.24;73.81;102353.53;5082063;28;20475;-71
2022/01/19 04:12:05;;;;;;;26.27;16.03;;;;;;;6.60;72.52;102350.19;5081972;28;20801;-69
2022/01/19 04:14:31;;;;;;;26.53;15.73;;;;;;;6.17;73.73;102355.69;5081889;28;20400;-70
2022/01/19 04:17:04;;;;;;;23.20;14.70;;;;;;;6.05;73.74;102358.53;5064669;28;20792;-69
2022/01/19 04:19:32;;;;;;;24.63;15.77;;;;;;;5.92;74.69;102363.81;5081971;28;20530;-69
2022/01/19 04:22:01;;;;;;;25.90;15.30;;;;;;;5.95;75.89;102358.81;5081649;28;20805;-70
2022/01/19 04:24:27;;;;;;;25.60;16.20;;;;;;;5.98;75.26;102357.31;5064285;28;20419;-71
2022/01/19 04:29:55;;;;;;;23.13;14.97;;;;;;;6.20;73.88;102355.88;5050657;28;20536;-70
2022/01/19 04:32:31;;;;;;;24.73;16.07;;;;;;;6.19;73.83;102344.63;5081537;28;20739;-70
2022/01/19 04:34:57;;;;;;;23.03;14.70;;;;;;;5.80;75.55;102351.09;5081572;28;20471;-70
2022/01/19 04:37:34;;;;;;;27.43;15.70;;;;;;;5.81;76.33;102332.19;5063985;28;20473;-70
2022/01/19 05:01:56;;;;;;;25.33;14.67;;;;;;;5.72;75.60;102323.09;5080942;28;20570;-70
2022/01/19 05:04:32;;;;;;;25.50;16.93;;;;;;;5.63;76.04;102317.41;5080962;28;20839;-68
2022/01/19 05:07:16;;;;;;;22.93;15.73;;;;;;;5.70;75.87;102306.59;5081076;28;20393;-69
2022/01/19 05:15:29;;;;;;;19.80;14.60;;;;;;;6.11;73.81;102294.13;5058705;28;20408;-69
2022/01/19 05:17:54;;;;;;;26.80;13.20;;;;;;;5.89;74.87;102284.31;5071669;28;20713;-69
2022/01/19 05:20:19;;;;;;;19.80;13.90;;;;;;;5.93;74.45;102283.66;5080664;28;20165;-70
2022/01/19 05:22:45;;;;;;;25.00;14.10;;;;;;;6.09;76.82;102275.06;5080938;28;20230;-69
2022/01/19 05:25:10;;;;;;;26.93;16.53;;;;;;;6.01;74.41;102269.47;5080520;28;20173;-68
2022/01/19 05:27:35;;;;;;;21.10;14.80;;;;;;;5.79;74.95;102275.16;5080754;28;20557;-69
2022/01/19 05:30:01;;;;;;;27.53;12.83;;;;;;;5.67;75.68;102270.22;5081166;28;20469;-70
2022/01/19 05:32:26;;;;;;;25.63;16.43;;;;;;;5.82;75.76;102261.47;5080339;28;20268;-69
2022/01/19 05:34:51;;;;;;;20.40;13.70;;;;;;;6.01;74.67;102247.88;5080326;28;20180;-70
2022/01/19 05:37:17;;;;;;;20.43;15.03;;;;;;;5.65;75.84;102243.34;5080602;28;20200;-69
2022/01/19 05:39:42;;;;;;;22.43;14.77;;;;;;;5.93;75.32;102244.84;5080295;28;20169;-69
2022/01/19 05:42:14;;;;;;;21.10;14.30;;;;;;;6.08;74.02;102234.41;5082693;28;20188;-71
2022/01/19 05:44:44;;;;;;;24.93;13.77;;;;;;;5.55;75.66;102235.91;5084001;28;20455;-71
2022/01/19 05:47:13;;;;;;;27.30;14.37;;;;;;;5.76;74.47;102230.09;5084030;28;20412;-69
2022/01/19 05:49:39;;;;;;;20.47;13.10;;;;;;;5.95;74.76;102229.38;5064783;28;20666;-69
2022/01/19 05:52:06;;;;;;;23.00;14.40;;;;;;;5.95;74.30;102225.06;5080236;28;20459;-69
2022/01/19 05:54:31;;;;;;;22.83;14.67;;;;;;;5.75;75.52;102213.69;5062473;28;20188;-69
2022/01/19 05:56:57;;;;;;;25.87;14.30;;;;;;;5.82;74.48;102204.53;5080121;28;20523;-69
2022/01/19 05:59:22;;;;;;;22.70;14.83;;;;;;;5.61;75.49;102202.59;5080069;28;20180;-69
2022/01/19 06:01:48;;;;;;;28.00;16.20;;;;;;;5.59;75.39;102201.63;5079913;28;20240;-69
2022/01/19 06:04:13;;;;;;;25.00;16.00;;;;;;;5.85;75.43;102196.94;5080088;28;20711;-69
2022/01/19 06:06:39;;;;;;;23.83;16.47;;;;;;;6.01;74.71;102190.91;5079646;28;20172;-71
2022/01/19 06:09:10;;;;;;;31.70;17.60;;;;;;;5.75;75.29;102182.66;5079550;28;20438;-69
2022/01/19 06:11:35;;;;;;;30.23;17.80;;;;;;;5.77;76.02;102180.13;5080114;28;20166;-71
2022/01/19 06:14:01;;;;;;;31.70;18.40;;;;;;;5.63;76.24;102169.03;5079407;28;21034;-69
2022/01/19 06:16:26;;;;;;;31.70;17.63;;;;;;;5.54;76.89;102172.03;5079363;28;20220;-69
2022/01/19 06:18:51;;;;;;;32.83;19.40;;;;;;;6.07;75.47;102166.22;5063027;28;20200;-70
2022/01/19 06:21:17;;;;;;;42.60;20.60;;;;;;;6.28;74.37;102159.44;5079317;28;20302;-70
2022/01/19 06:23:42;;;;;;;36.67;21.97;;;;;;;6.22;74.61;102157.44;5079600;28;20204;-70
2022/01/19 06:26:07;;;;;;;39.70;20.60;;;;;;;6.11;74.67;102156.03;5079397;28;20168;-69
2022/01/19 06:28:33;;;;;;;38.20;20.90;;;;;;;6.01;74.65;102150.38;5061431;28;20177;-71
2022/01/19 06:30:58;;;;;;;40.90;22.10;;;;;;;6.13;75.22;102149.19;5079322;28;20180;-70
2022/01/19 06:33:24;;;;;;;40.33;21.17;;;;;;;6.23;74.60;102139.38;5079629;28;20188;-70
2022/01/19 06:35:50;;;;;;;37.97;22.10;;;;;;;5.96;75.55;102145.75;5079095;28;20179;-69
2022/01/19 06:38:16;;;;;;;42.40;25.17;;;;;;;5.63;76.71;102140.56;5079022;28;20504;-69
2022/01/19 06:40:41;;;;;;;46.37;25.13;;;;;;;5.66;76.76;102144.22;5079466;28;20535;-69
2022/01/19 06:43:06;;;;;;;45.33;27.33;;;;;;;6.03;75.84;102137.50;5078840;28;20180;-69
2022/01/19 06:45:32;;;;;;;49.90;29.07;;;;;;;5.86;76.66;102134.91;5078947;28;20184;-68
2022/01/19 06:47:58;;;;;;;46.00;28.77;;;;;;;5.89;75.65;102144.53;5079082;28;20168;-68
2022/01/19 06:50:24;;;;;;;48.33;29.27;;;;;;;6.05;75.48;102144.53;5078929;28;20588;-69
2022/01/19 06:52:50;;;;;;;40.50;26.93;;;;;;;6.03;75.39;102143.56;5078472;28;20273;-70
2022/01/19 06:55:16;;;;;;;45.77;25.83;;;;;;;5.93;75.68;102136.13;5079268;28;20494;-70
2022/01/19 06:57:44;;;;;;;43.60;25.83;;;;;;;6.04;76.36;102129.81;5078378;28;20441;-69
2022/01/19 07:00:11;;;;;;;45.17;26.70;;;;;;;5.85;75.39;102132.25;5078703;28;20485;-69
2022/01/19 07:02:36;;;;;;;37.13;25.70;;;;;;;5.99;75.88;102127.81;5078834;28;20392;-68
2022/01/19 07:05:01;;;;;;;44.20;26.97;;;;;;;5.80;76.29;102128.53;5078747;28;20406;-69
2022/01/19 07:07:27;;;;;;;45.67;25.97;;;;;;;6.14;75.28;102125.09;5078549;28;20450;-68
2022/01/19 07:09:52;;;;;;;36.80;24.93;;;;;;;6.05;75.67;102115.19;5061699;28;20538;-69
2022/01/19 07:12:17;;;;;;;41.20;24.60;;;;;;;6.30;74.42;102119.84;5078548;28;20173;-69
2022/01/19 07:14:43;;;;;;;49.30;27.00;;;;;;;6.25;74.70;102118.75;5078294;28;20179;-69
2022/01/19 07:17:08;;;;;;;44.27;27.03;;;;;;;6.14;75.07;102105.25;5078770;28;20220;-69
2022/01/19 07:19:34;;;;;;;41.40;25.47;;;;;;;6.09;75.83;102105.84;5078511;28;20177;-69
2022/01/19 07:21:59;;;;;;;41.27;24.10;;;;;;;6.01;76.48;102101.19;5078257;28;20165;-69
2022/01/19 07:24:25;;;;;;;44.57;25.17;;;;;;;5.87;76.00;102089.19;5061331;28;20465;-70
2022/01/19 07:26:50;;;;;;;40.60;24.30;;;;;;;6.23;75.64;102089.31;5078301;28;20291;-70
2022/01/19 07:29:16;;;;;;;42.33;24.57;;;;;;;6.04;75.57;102093.56;5078139;28;20191;-70
2022/01/19 07:31:41;;;;;;;39.70;24.20;;;;;;;5.92;76.43;102092.03;5078766;28;20255;-69
2022/01/19 07:34:08;;;;;;;43.50;25.20;;;;;;;6.04;75.86;102080.63;5078255;28;20227;-69
2022/01/19 07:36:33;;;;;;;41.03;24.60;;;;;;;5.69;77.16;102084.88;5060823;28;20173;-70
2022/01/19 07:38:58;;;;;;;43.87;27.87;;;;;;;5.92;77.07;102082.56;5078343;28;20654;-70
2022/01/19 07:41:23;;;;;;;38.87;24.37;;;;;;;5.82;76.38;102082.91;5078163;28;20262;-69
2022/01/19 07:43:49;;;;;;;39.77;24.87;;;;;;;6.01;77.22;102072.72;5078141;28;20172;-72
2022/01/19 07:46:16;;;;;;;44.77;23.97;;;;;;;5.70;77.05;102065.06;5078849;28;20173;-69
2022/01/19 07:48:41;;;;;;;47.23;25.93;;;;;;;5.94;76.62;102056.75;5060566;28;20176;-71
2022/01/19 07:51:06;;;;;;;44.93;25.93;;;;;;;5.97;77.12;102047.44;5077973;28;20390;-69
2022/01/19 07:53:32;;;;;;;46.30;25.10;;;;;;;6.09;76.29;102039.44;5077836;28;20267;-69
2022/01/19 07:55:57;;;;;;;54.50;26.00;;;;;;;5.96;76.75;102027.53;5060822;28;20260;-69
2022/01/19 07:58:22;;;;;;;46.60;25.90;;;;;;;6.10;76.43;102032.56;5078436;28;20472;-69
2022/01/19 08:00:48;;;;;;;36.77;24.40;;;;;;;6.00;77.15;102034.69;5078059;28;20180;-68
2022/01/19 08:03:14;;;;;;;38.03;22.10;;;;;;;7.96;79.97;102013.19;5077835;28;20539;-63
2022/01/19 08:05:39;;;;;;;26.83;18.23;;;;;;;8.80;74.13;102015.63;5078307;28;20493;-63
2022/01/19 08:08:05;;;;;;;42.63;24.40;;;;;;;7.59;71.50;102017.72;5077748;28;20398;-63
2022/01/19 08:10:31;;;;;;;40.87;26.20;;;;;;;6.61;72.19;102012.53;5078199;28;20453;-74
2022/01/19 08:12:56;;;;;;;44.63;26.67;;;;;;;6.51;73.43;102007.75;5061488;28;20267;-72
2022/01/19 08:15:22;;;;;;;44.37;26.47;;;;;;;6.27;74.41;102008.34;5060281;28;20177;-70
2022/01/19 08:17:47;;;;;;;39.23;25.40;;;;;;;5.90;75.08;102007.44;5078833;28;20469;-69
2022/01/19 08:20:13;;;;;;;46.73;25.80;;;;;;;5.21;77.77;102020.34;5087600;28;20176;-69
2022/01/19 08:22:38;;;;;;;44.40;25.20;;;;;;;5.32;77.23;102020.03;5085813;28;20549;-69
2022/01/19 08:25:04;;;;;;;52.23;27.07;;;;;;;5.40;77.32;102006.66;5097888;28;20172;-68
2022/01/19 08:27:29;;;;;;;47.60;27.00;;;;;;;5.43;76.51;101999.91;5084680;28;20177;-69
2022/01/19 08:29:54;;;;;;;42.00;27.20;;;;;;;5.77;75.68;101994.69;5077472;28;20177;-70
2022/01/19 08:32:19;;;;;;;49.07;28.37;;;;;;;5.64;76.27;101993.22;5077446;28;20179;-72
2022/01/19 08:34:45;;;;;;;46.17;28.10;;;;;;;5.63;75.79;101994.03;5080383;28;20182;-72
2022/01/19 08:37:14;;;;;;;44.23;27.40;;;;;;;5.15;77.34;101999.34;5097879;28;20233;-71
2022/01/19 08:39:41;;;;;;;46.30;27.97;;;;;;;5.04;77.57;101996.19;5097790;28;20251;-71
2022/01/19 08:42:07;;;;;;;48.87;28.20;;;;;;;4.97;79.09;101994.09;5098282;28;20817;-71
2022/01/19 08:44:32;;;;;;;49.10;29.37;;;;;;;5.27;77.85;101974.94;5097720;28;20438;-70
2022/01/19 08:46:57;;;;;;;46.63;28.33;;;;;;;5.14;77.79;101973.41;5087652;28;20168;-72
2022/01/19 08:49:23;;;;;;;53.63;29.67;;;;;;;5.24;77.47;101962.75;5101945;28;20172;-72
2022/01/19 08:51:50;;;;;;;49.57;30.50;;;;;;;4.99;77.91;101964.06;5104436;28;20252;-72
2022/01/19 08:54:15;;;;;;;51.70;32.13;;;;;;;5.53;77.45;101956.47;5082415;28;20238;-72
2022/01/19 08:56:41;;;;;;;54.77;30.97;;;;;;;5.17;77.51;101951.19;5081683;28;20428;-72
2022/01/19 08:59:07;;;;;;;49.23;30.43;;;;;;;5.11;77.90;101955.16;5097349;28;20247;-70
2022/01/19 09:01:32;;;;;;;46.83;27.43;;;;;;;5.32;76.88;101938.16;5121430;28;20404;-70
2022/01/19 09:03:57;;;;;;;51.07;32.50;;;;;;;5.61;76.01;101932.66;5121794;28;20226;-72
2022/01/19 09:06:23;;;;;;;45.40;27.17;;;;;;;4.95;77.45;101919.88;5121434;28;20178;-71
2022/01/19 09:08:48;;;;;;;48.20;28.43;;;;;;;5.02;77.57;101932.31;5121432;28;20217;-71
2022/01/19 09:11:13;;;;;;;46.47;28.13;;;;;;;4.97;77.65;101914.00;5121819;28;20216;-69
2022/01/19 09:13:39;;;;;;;41.03;27.23;;;;;;;5.38;76.06;101907.41;5121131;28;20168;-70
2022/01/19 09:16:05;;;;;;;42.00;26.47;;;;;;;5.13;76.38;101910.50;5121322;28;20529;-70
2022/01/19 09:18:31;;;;;;;46.50;27.43;;;;;;;5.33;75.94;101903.75;5121513;28;20477;-70
2022/01/19 09:20:56;;;;;;;40.40;26.30;;;;;;;5.34;76.18;101889.97;5121271;28;20409;-69
2022/01/19 09:23:21;;;;;;;48.37;27.50;;;;;;;5.49;75.48;101892.44;5121035;28;20553;-70
2022/01/19 09:25:47;;;;;;;44.97;28.90;;;;;;;5.65;75.01;101886.31;5121520;28;20195;-70
2022/01/19 09:28:12;;;;;;;47.50;30.80;;;;;;;6.03;73.35;101884.69;5120849;28;20216;-70
2022/01/19 09:30:40;;;;;;;53.57;31.13;;;;;;;5.90;73.50;101879.75;5120882;28;20259;-70
2022/01/19 09:33:07;;;;;;;43.97;28.20;;;;;;;6.02;72.86;101870.00;5121100;28;20168;-68
2022/01/19 09:38:37;;;;;;;50.83;30.50;;;;;;;5.72;74.45;101862.53;5089931;28;20683;-70
2022/01/19 09:41:06;;;;;;;48.87;30.27;;;;;;;5.56;74.97;101865.16;5120711;28;20427;-70
2022/01/19 09:43:31;;;;;;;48.40;28.47;;;;;;;5.72;74.27;101862.53;5120849;28;20887;-68
2022/01/19 09:45:58;;;;;;;53.50;29.60;;;;;;;6.11;73.06;101853.97;5120991;28;20417;-70
2022/01/19 09:48:24;;;;;;;46.50;30.90;;;;;;;6.28;72.68;101853.84;5121772;28;20545;-71
2022/01/19 09:50:50;;;;;;;54.63;31.10;;;;;;;5.90;73.73;101846.09;5123510;28;20396;-71
2022/01/19 09:53:15;;;;;;;48.83;29.10;;;;;;;6.13;73.18;101838.50;5123823;27;20558;-70
2022/01/19 09:55:41;;;;;;;51.53;30.73;;;;;;;6.17;73.46;101837.81;5144627;27;20174;-70
2022/01/19 09:58:07;;;;;;;48.90;30.03;;;;;;;5.98;74.23;101839.59;5144762;27;20572;-71
2022/01/19 10:00:33;;;;;;;57.10;30.10;;;;;;;6.04;73.61;101839.88;5146128;27;20245;-71
2022/01/19 10:03:22;;;;;;;49.37;30.03;;;;;;;5.74;73.96;101829.84;5145202;27;20430;-70
2022/01/19 10:06:12;;;;;;;60.80;31.27;;;;;;;6.11;72.81;101825.50;5147016;27;20657;-70
2022/01/19 10:08:47;;;;;;;46.80;28.07;;;;;;;5.78;74.52;101822.19;5144209;27;20394;-70
2022/01/19 10:11:25;;;;;;;53.10;31.10;;;;;;;5.85;74.01;101824.28;5146030;27;20383;-71
2022/01/19 10:17:01;;;;;;;47.50;29.93;;;;;;;5.65;75.17;101811.28;5141030;27;20425;-71
2022/01/19 10:19:37;;;;;;;46.67;28.73;;;;;;;5.92;74.15;101794.41;5141331;27;20409;-69
2022/01/19 10:22:03;;;;;;;49.30;29.10;;;;;;;6.19;73.65;101797.38;5140626;27;20659;-72
2022/01/19 10:25:00;;;;;;;47.77;30.37;;;;;;;6.23;72.58;101788.94;5140443;27;20405;-69
2022/01/19 10:27:31;;;;;;;51.07;31.17;;;;;;;5.97;73.82;101780.84;5133169;27;20182;-70
2022/01/19 10:30:11;;;;;;;45.73;29.80;;;;;;;6.04;74.11;101777.75;5141055;27;20412;-70
2022/01/19 10:32:42;;;;;;;44.47;26.20;;;;;;;5.93;74.01;101772.84;5141295;27;20495;-68
2022/01/19 10:35:19;;;;;;;46.07;28.13;;;;;;;5.68;74.65;101771.75;5140359;27;20431;-70
2022/01/19 10:37:46;;;;;;;44.27;27.07;;;;;;;5.73;74.44;101763.38;5140383;27;20477;-67
2022/01/19 10:40:17;;;;;;;37.00;23.03;;;;;;;8.65;76.74;101750.78;5140241;27;20423;-61
2022/01/19 10:42:43;;;;;;;30.93;20.67;;;;;;;11.11;72.23;101744.78;5139809;27;20457;-62
2022/01/19 10:45:09;;;;;;;43.93;29.67;;;;;;;6.79;69.24;101755.00;5140136;27;20391;-69
2022/01/19 10:47:47;;;;;;;36.20;25.97;;;;;;;5.51;74.25;101763.22;5140312;27;20167;-70
2022/01/19 10:50:28;;;;;;;45.40;26.53;;;;;;;5.83;74.46;101740.50;5139984;27;20444;-70
2022/01/19 10:52:56;;;;;;;46.30;29.10;;;;;;;5.99;73.23;101743.00;5125501;27;20461;-71
2022/01/19 10:55:39;;;;;;;43.80;28.10;;;;;;;5.58;73.87;101741.97;5119357;28;20428;-70
2022/01/19 10:58:11;;;;;;;45.03;29.77;;;;;;;5.36;74.70;101742.69;5119172;28;20500;-71
2022/01/19 11:00:36;;;;;;;43.40;28.27;;;;;;;5.67;74.29;101733.75;5119283;28;20395;-73
2022/01/19 11:03:21;;;;;;;46.20;28.93;;;;;;;5.55;74.22;101726.31;5119155;28;20418;-72
2022/01/19 11:05:51;;;;;;;40.67;27.97;;;;;;;5.22;75.09;101717.06;5119270;28;20496;-71
2022/01/19 11:08:18;;;;;;;47.03;29.63;;;;;;;5.84;73.45;101706.06;5101803;28;20462;-71
2022/01/19 11:10:48;;;;;;;48.33;30.03;;;;;;;5.45;74.70;101699.13;5119379;28;20384;-71
2022/01/19 11:13:17;;;;;;;42.77;28.17;;;;;;;5.83;74.04;101693.94;5118534;28;20426;-72
2022/01/19 11:15:43;;;;;;;42.37;27.30;;;;;;;5.66;74.24;101688.88;5119524;28;20384;-71
2022/01/19 11:18:08;;;;;;;45.73;29.20;;;;;;;5.34;75.25;101692.59;5119638;28;20849;-71
2022/01/19 11:20:44;;;;;;;41.17;28.20;;;;;;;5.49;74.96;101675.19;5122229;28;20172;-70
2022/01/19 11:23:33;;;;;;;39.23;26.27;;;;;;;5.29;74.89;101689.81;5102354;28;20179;-71
2022/01/19 11:26:20;;;;;;;47.00;29.87;;;;;;;5.40;75.38;101675.66;5101117;28;20500;-72
2022/01/19 11:28:49;;;;;;;47.00;28.63;;;;;;;5.50;74.47;101673.50;5101190;28;20748;-71
2022/01/19 11:31:20;;;;;;;49.07;28.23;;;;;;;5.21;75.14;101673.06;5118603;28;20466;-72
2022/01/19 11:33:51;;;;;;;44.17;28.00;;;;;;;4.88;76.96;101657.72;5118631;28;20425;-71
2022/01/19 11:36:34;;;;;;;45.63;30.20;;;;;;;5.12;76.49;101651.94;5118657;28;20384;-66
2022/01/19 11:39:02;;;;;;;43.87;31.20;;;;;;;5.51;74.92;101655.47;5118720;28;20424;-70
2022/01/19 11:41:37;;;;;;;50.33;29.50;;;;;;;5.09;75.91;101650.09;5118451;28;20850;-67
2022/01/19 11:44:03;;;;;;;42.87;27.93;;;;;;;4.98;75.70;101638.34;5118232;28;20847;-67
2022/01/19 11:46:34;;;;;;;47.67;29.07;;;;;;;5.69;73.87;101623.47;5118499;28;20795;-71
2022/01/19 11:49:01;;;;;;;43.87;27.90;;;;;;;5.18;75.55;101632.44;5118526;28;20448;-69
2022/01/19 11:51:38;;;;;;;43.60;26.43;;;;;;;5.16;76.07;101620.25;5119067;28;20407;-68
2022/01/19 11:54:19;;;;;;;44.23;28.77;;;;;;;5.58;74.98;101597.13;5120001;28;20399;-66
2022/01/19 11:56:59;;;;;;;45.00;28.00;;;;;;;5.22;75.73;101590.41;5118678;28;20439;-70
2022/01/19 11:59:55;;;;;;;44.70;27.87;;;;;;;5.46;74.78;101579.38;5118691;28;20392;-70
2022/01/19 12:02:20;;;;;;;41.37;26.97;;;;;;;5.22;76.00;101568.81;5100479;28;20882;-70
2022/01/19 12:04:47;;;;;;;46.53;29.70;;;;;;;5.46;75.04;101558.66;5118356;28;20454;-69
2022/01/19 12:07:45;;;;;;;45.87;29.30;;;;;;;4.65;77.28;101567.09;5118208;28;20250;-70
2022/01/19 12:10:14;;;;;;;44.30;28.57;;;;;;;4.75;77.58;101554.59;5118480;28;20384;-69
2022/01/19 12:12:47;;;;;;;46.20;29.77;;;;;;;4.98;76.57;101538.47;5118150;28;20455;-69
2022/01/19 12:15:52;;;;;;;47.90;29.93;;;;;;;5.00;76.40;101539.41;5118333;28;20414;-70
2022/01/19 12:18:40;;;;;;;44.90;29.47;;;;;;;5.49;74.66;101527.75;5019408;28;20439;-69
2022/01/19 12:21:06;;;;;;;44.13;28.27;;;;;;;4.92;77.19;101524.41;5118148;28;20455;-70
2022/01/19 12:23:37;;;;;;;49.00;32.33;;;;;;;5.55;74.43;101512.53;5100574;28;20405;-67
2022/01/19 12:26:03;;;;;;;48.50;29.77;;;;;;;5.16;74.85;101511.69;5120757;28;20423;-66
2022/01/19 12:28:50;;;;;;;42.97;27.97;;;;;;;5.56;74.24;101510.81;5104329;28;20781;-67
2022/01/19 12:31:25;;;;;;;42.10;29.40;;;;;;;5.40;73.85;101497.22;5122134;28;20467;-67
2022/01/19 12:34:02;;;;;;;41.67;27.70;;;;;;;5.23;74.72;101495.63;5121976;28;20416;-70
2022/01/19 12:36:48;;;;;;;41.90;28.80;;;;;;;5.47;74.29;101484.59;5122237;28;20750;-70
2022/01/19 12:39:26;;;;;;;38.60;28.70;;;;;;;5.25;74.21;101486.25;5104332;28;20705;-69
2022/01/19 12:41:58;;;;;;;41.23;27.70;;;;;;;5.44;73.58;101487.00;5121736;28;20424;-69
2022/01/19 12:44:50;;;;;;;43.20;28.87;;;;;;;5.13;74.36;101476.25;5121693;28;20405;-69